sensor_id;sensor_type;location;lat;lon;timestamp;temperature;humidity
14144;DHT22;7152;48.348;10.980;2023-02-20T00:02:14;7.90;99.90
14144;DHT22;7152;48.348;10.980;2023-02-20T00:04:41;7.80;99.90
14144;DHT22;7152;48.348;10.980;2023-02-20T00:07:06;7.90;99.90
14144;DHT22;7152;48.348;10.980;2023-02-20T00:09:32;7.90;99.90
14144;DHT22;7152;48.348;10.980;2023-02-20T00:11:58;7.80;99.90
14144;DHT22;7152;48.348;10.980;2023-02-20T00:14:23;7.80;99.90
14144;DHT22;7152;48.348;10.980;2023-02-20T00:16:49;7.80;99.90
14144;DHT22;7152;48.348;10.980;2023-02-20T00:19:15;7.90;99.90
14144;DHT22;7152;48.348;10.980;2023-02-20T00:21:47;7.80;99.90
14144;DHT22;7152;48.348;10.980;2023-02-20T00:24:14;7.80;99.90
14144;DHT22;7152;48.348;10.980;2023-02-20T00:26:51;7.80;99.90
14144;DHT22;7152;48.348;10.980;2023-02-20T00:29:19;7.80;99.90
14144;DHT22;7152;48.348;10.980;2023-02-20T00:31:56;7.80;99.90
14144;DHT22;7152;48.348;10.980;2023-02-20T00:34:25;7.80;99.90
14144;DHT22;7152;48.348;10.980;2023-02-20T00:36:51;7.80;99.90
14144;DHT22;7152;48.348;10.980;2023-02-20T00:39:16;7.80;99.90
14144;DHT22;7152;48.348;10.980;2023-02-20T00:41:42;7.80;99.90
14144;DHT22;7152;48.348;10.980;2023-02-20T00:44:08;7.80;99.90
14144;DHT22;7152;48.348;10.980;2023-02-20T00:46:34;7.80;99.90
14144;DHT22;7152;48.348;10.980;2023-02-20T00:48:59;7.80;99.90
14144;DHT22;7152;48.348;10.980;2023-02-20T00:51:25;7.80;99.90
14144;DHT22;7152;48.348;10.980;2023-02-20T00:53:51;7.70;99.90
14144;DHT22;7152;48.348;10.980;2023-02-20T00:56:16;7.70;99.90
14144;DHT22;7152;48.348;10.980;2023-02-20T00:58:42;7.80;99.90
14144;DHT22;7152;48.348;10.980;2023-02-20T01:01:08;7.70;99.90
14144;DHT22;7152;48.348;10.980;2023-02-20T01:03:34;7.80;99.90
14144;DHT22;7152;48.348;10.980;2023-02-20T01:05:59;7.70;99.90
14144;DHT22;7152;48.348;10.980;2023-02-20T01:08:25;7.70;99.90
14144;DHT22;7152;48.348;10.980;2023-02-20T01:10:50;7.70;99.90
14144;DHT22;7152;48.348;10.980;2023-02-20T01:13:16;7.70;99.90
14144;DHT22;7152;48.348;10.980;2023-02-20T01:15:42;7.70;99.90
14144;DHT22;7152;48.348;10.980;2023-02-20T01:18:08;7.70;99.90
14144;DHT22;7152;48.348;10.980;2023-02-20T01:20:33;7.70;99.90
14144;DHT22;7152;48.348;10.980;2023-02-20T01:22:59;7.70;99.90
14144;DHT22;7152;48.348;10.980;2023-02-20T01:25:25;7.70;99.90
14144;DHT22;7152;48.348;10.980;2023-02-20T01:27:51;7.70;99.90
14144;DHT22;7152;48.348;10.980;2023-02-20T01:30:16;7.70;99.90
14144;DHT22;7152;48.348;10.980;2023-02-20T01:32:42;7.70;99.90
14144;DHT22;7152;48.348;10.980;2023-02-20T01:35:08;7.70;99.90
14144;DHT22;7152;48.348;10.980;2023-02-20T01:37:33;7.60;99.90
14144;DHT22;7152;48.348;10.980;2023-02-20T01:39:59;7.60;99.90
14144;DHT22;7152;48.348;10.980;2023-02-20T01:42:28;7.70;99.90
14144;DHT22;7152;48.348;10.980;2023-02-20T01:44:54;7.70;99.90
14144;DHT22;7152;48.348;10.980;2023-02-20T01:47:39;7.60;99.90
14144;DHT22;7152;48.348;10.980;2023-02-20T01:50:05;7.60;99.90
14144;DHT22;7152;48.348;10.980;2023-02-20T01:52:34;7.60;99.90
14144;DHT22;7152;48.348;10.980;2023-02-20T01:57:32;7.60;99.90
14144;DHT22;7152;48.348;10.980;2023-02-20T02:00:04;7.60;99.90
14144;DHT22;7152;48.348;10.980;2023-02-20T02:02:32;7.60;99.90
14144;DHT22;7152;48.348;10.980;2023-02-20T02:05:01;7.60;99.90
14144;DHT22;7152;48.348;10.980;2023-02-20T02:07:28;7.60;99.90
14144;DHT22;7152;48.348;10.980;2023-02-20T02:10:10;7.60;99.90
14144;DHT22;7152;48.348;10.980;2023-02-20T02:12:37;7.60;99.90
14144;DHT22;7152;48.348;10.980;2023-02-20T02:15:11;7.60;99.90
14144;DHT22;7152;48.348;10.980;2023-02-20T02:21:15;7.60;99.90
14144;DHT22;7152;48.348;10.980;2023-02-20T02:27:33;7.60;99.90
14144;DHT22;7152;48.348;10.980;2023-02-20T02:43:36;7.60;99.90
14144;DHT22;7152;48.348;10.980;2023-02-20T02:46:27;7.60;99.90
14144;DHT22;7152;48.348;10.980;2023-02-20T02:49:02;7.60;99.90
14144;DHT22;7152;48.348;10.980;2023-02-20T02:51:35;7.60;99.90
14144;DHT22;7152;48.348;10.980;2023-02-20T02:54:07;7.60;99.90
14144;DHT22;7152;48.348;10.980;2023-02-20T02:56:44;7.50;99.90
14144;DHT22;7152;48.348;10.980;2023-02-20T02:59:26;7.50;99.90
14144;DHT22;7152;48.348;10.980;2023-02-20T03:02:00;7.40;99.90
14144;DHT22;7152;48.348;10.980;2023-02-20T03:04:27;7.40;99.90
14144;DHT22;7152;48.348;10.980;2023-02-20T03:06:59;7.40;99.90
14144;DHT22;7152;48.348;10.980;2023-02-20T03:09:37;7.30;99.90
14144;DHT22;7152;48.348;10.980;2023-02-20T03:12:07;7.30;99.90
14144;DHT22;7152;48.348;10.980;2023-02-20T03:14:42;7.30;99.90
14144;DHT22;7152;48.348;10.980;2023-02-20T03:17:36;7.30;99.90
14144;DHT22;7152;48.348;10.980;2023-02-20T03:20:09;7.20;99.90
14144;DHT22;7152;48.348;10.980;2023-02-20T03:22:42;7.20;99.90
14144;DHT22;7152;48.348;10.980;2023-02-20T03:25:30;7.20;99.90
14144;DHT22;7152;48.348;10.980;2023-02-20T03:28:10;7.10;99.90
14144;DHT22;7152;48.348;10.980;2023-02-20T03:30:59;7.10;99.90
14144;DHT22;7152;48.348;10.980;2023-02-20T03:33:35;7.00;99.90
14144;DHT22;7152;48.348;10.980;2023-02-20T03:36:26;6.90;99.90
14144;DHT22;7152;48.348;10.980;2023-02-20T03:39:17;6.90;99.90
14144;DHT22;7152;48.348;10.980;2023-02-20T03:42:05;6.80;99.90
14144;DHT22;7152;48.348;10.980;2023-02-20T03:44:51;6.80;99.90
14144;DHT22;7152;48.348;10.980;2023-02-20T03:47:19;6.70;99.90
14144;DHT22;7152;48.348;10.980;2023-02-20T03:49:48;6.70;99.90
14144;DHT22;7152;48.348;10.980;2023-02-20T03:52:15;6.70;99.90
14144;DHT22;7152;48.348;10.980;2023-02-20T03:54:41;6.70;99.90
14144;DHT22;7152;48.348;10.980;2023-02-20T03:57:40;6.60;99.90
14144;DHT22;7152;48.348;10.980;2023-02-20T04:00:16;6.60;99.90
14144;DHT22;7152;48.348;10.980;2023-02-20T04:02:45;6.50;99.90
14144;DHT22;7152;48.348;10.980;2023-02-20T04:05:18;6.50;99.90
14144;DHT22;7152;48.348;10.980;2023-02-20T04:07:56;6.50;99.90
14144;DHT22;7152;48.348;10.980;2023-02-20T04:10:30;6.50;99.90
14144;DHT22;7152;48.348;10.980;2023-02-20T04:12:59;6.40;99.90
14144;DHT22;7152;48.348;10.980;2023-02-20T04:15:27;6.40;99.90
14144;DHT22;7152;48.348;10.980;2023-02-20T04:18:04;6.40;99.90
14144;DHT22;7152;48.348;10.980;2023-02-20T04:20:31;6.30;99.90
14144;DHT22;7152;48.348;10.980;2023-02-20T04:23:02;6.30;99.90
14144;DHT22;7152;48.348;10.980;2023-02-20T04:25:46;6.30;99.90
14144;DHT22;7152;48.348;10.980;2023-02-20T04:28:15;6.30;99.90
14144;DHT22;7152;48.348;10.980;2023-02-20T04:30:41;6.20;99.90
14144;DHT22;7152;48.348;10.980;2023-02-20T04:33:10;6.20;99.90
14144;DHT22;7152;48.348;10.980;2023-02-20T04:35:38;6.20;99.90
14144;DHT22;7152;48.348;10.980;2023-02-20T04:38:05;6.10;99.90
14144;DHT22;7152;48.348;10.980;2023-02-20T04:40:30;6.10;99.90
14144;DHT22;7152;48.348;10.980;2023-02-20T04:42:56;6.00;99.90
14144;DHT22;7152;48.348;10.980;2023-02-20T04:45:22;6.00;99.90
14144;DHT22;7152;48.348;10.980;2023-02-20T04:47:47;6.00;99.90
14144;DHT22;7152;48.348;10.980;2023-02-20T04:50:23;6.00;99.90
14144;DHT22;7152;48.348;10.980;2023-02-20T04:52:49;5.90;99.90
14144;DHT22;7152;48.348;10.980;2023-02-20T04:55:15;5.80;99.90
14144;DHT22;7152;48.348;10.980;2023-02-20T04:57:41;5.80;99.90
14144;DHT22;7152;48.348;10.980;2023-02-20T05:00:07;5.80;99.90
14144;DHT22;7152;48.348;10.980;2023-02-20T05:02:33;5.70;99.90
14144;DHT22;7152;48.348;10.980;2023-02-20T05:04:59;5.60;99.90
14144;DHT22;7152;48.348;10.980;2023-02-20T05:07:24;5.50;99.90
14144;DHT22;7152;48.348;10.980;2023-02-20T05:09:50;5.50;99.90
14144;DHT22;7152;48.348;10.980;2023-02-20T05:12:16;5.40;99.90
14144;DHT22;7152;48.348;10.980;2023-02-20T05:14:41;5.30;99.90
14144;DHT22;7152;48.348;10.980;2023-02-20T05:17:07;5.30;99.90
14144;DHT22;7152;48.348;10.980;2023-02-20T05:19:33;5.20;99.90
14144;DHT22;7152;48.348;10.980;2023-02-20T05:21:58;5.20;99.90
14144;DHT22;7152;48.348;10.980;2023-02-20T05:24:44;5.10;99.90
14144;DHT22;7152;48.348;10.980;2023-02-20T05:27:10;5.10;99.90
14144;DHT22;7152;48.348;10.980;2023-02-20T05:29:35;5.00;99.90
14144;DHT22;7152;48.348;10.980;2023-02-20T05:32:01;5.00;99.90
14144;DHT22;7152;48.348;10.980;2023-02-20T05:34:27;4.90;99.90
14144;DHT22;7152;48.348;10.980;2023-02-20T05:36:53;4.90;99.90
14144;DHT22;7152;48.348;10.980;2023-02-20T05:39:19;4.80;99.90
14144;DHT22;7152;48.348;10.980;2023-02-20T05:41:45;4.70;99.90
14144;DHT22;7152;48.348;10.980;2023-02-20T05:44:11;4.60;99.90
14144;DHT22;7152;48.348;10.980;2023-02-20T05:46:40;4.60;99.90
14144;DHT22;7152;48.348;10.980;2023-02-20T05:49:06;4.60;99.90
14144;DHT22;7152;48.348;10.980;2023-02-20T05:51:32;4.50;99.90
14144;DHT22;7152;48.348;10.980;2023-02-20T05:53:58;4.50;99.90
14144;DHT22;7152;48.348;10.980;2023-02-20T05:56:23;4.40;99.90
14144;DHT22;7152;48.348;10.980;2023-02-20T05:58:50;4.30;99.90
14144;DHT22;7152;48.348;10.980;2023-02-20T06:01:24;4.30;99.90
14144;DHT22;7152;48.348;10.980;2023-02-20T06:03:50;4.30;99.90
14144;DHT22;7152;48.348;10.980;2023-02-20T06:06:17;4.30;99.90
14144;DHT22;7152;48.348;10.980;2023-02-20T06:08:43;4.20;99.90
14144;DHT22;7152;48.348;10.980;2023-02-20T06:11:10;4.30;99.90
14144;DHT22;7152;48.348;10.980;2023-02-20T06:13:42;4.20;99.90
14144;DHT22;7152;48.348;10.980;2023-02-20T06:16:08;4.30;99.90
14144;DHT22;7152;48.348;10.980;2023-02-20T06:18:40;4.30;99.90
14144;DHT22;7152;48.348;10.980;2023-02-20T06:21:08;4.40;99.90
14144;DHT22;7152;48.348;10.980;2023-02-20T06:23:35;4.50;99.90
14144;DHT22;7152;48.348;10.980;2023-02-20T06:26:02;4.50;99.90
14144;DHT22;7152;48.348;10.980;2023-02-20T06:28:27;4.50;99.90
14144;DHT22;7152;48.348;10.980;2023-02-20T06:30:53;4.50;99.90
14144;DHT22;7152;48.348;10.980;2023-02-20T06:33:19;4.60;99.90
14144;DHT22;7152;48.348;10.980;2023-02-20T06:35:45;4.60;99.90
14144;DHT22;7152;48.348;10.980;2023-02-20T06:38:10;4.60;99.90
14144;DHT22;7152;48.348;10.980;2023-02-20T06:40:37;4.60;99.90
14144;DHT22;7152;48.348;10.980;2023-02-20T06:43:04;4.70;99.90
14144;DHT22;7152;48.348;10.980;2023-02-20T06:45:29;4.70;99.90
14144;DHT22;7152;48.348;10.980;2023-02-20T06:47:55;4.80;99.90
14144;DHT22;7152;48.348;10.980;2023-02-20T06:50:21;4.80;99.90
14144;DHT22;7152;48.348;10.980;2023-02-20T06:52:47;4.80;99.90
14144;DHT22;7152;48.348;10.980;2023-02-20T06:55:13;4.90;99.90
14144;DHT22;7152;48.348;10.980;2023-02-20T06:57:38;4.90;99.90
14144;DHT22;7152;48.348;10.980;2023-02-20T07:00:05;5.00;99.90
14144;DHT22;7152;48.348;10.980;2023-02-20T07:02:30;5.00;99.90
14144;DHT22;7152;48.348;10.980;2023-02-20T07:04:56;5.10;99.90
14144;DHT22;7152;48.348;10.980;2023-02-20T07:07:22;5.10;99.90
14144;DHT22;7152;48.348;10.980;2023-02-20T07:09:47;5.10;99.90
14144;DHT22;7152;48.348;10.980;2023-02-20T07:12:13;5.10;99.90
14144;DHT22;7152;48.348;10.980;2023-02-20T07:14:39;5.20;99.90
14144;DHT22;7152;48.348;10.980;2023-02-20T07:17:04;5.20;99.90
14144;DHT22;7152;48.348;10.980;2023-02-20T07:19:30;5.20;99.90
14144;DHT22;7152;48.348;10.980;2023-02-20T07:21:56;5.30;99.90
14144;DHT22;7152;48.348;10.980;2023-02-20T07:24:21;5.40;99.90
14144;DHT22;7152;48.348;10.980;2023-02-20T07:26:47;5.40;99.90
14144;DHT22;7152;48.348;10.980;2023-02-20T07:29:13;5.40;99.90
14144;DHT22;7152;48.348;10.980;2023-02-20T07:31:39;5.50;99.90
14144;DHT22;7152;48.348;10.980;2023-02-20T07:34:05;5.60;99.90
14144;DHT22;7152;48.348;10.980;2023-02-20T07:36:30;5.70;99.90
14144;DHT22;7152;48.348;10.980;2023-02-20T07:38:58;5.70;99.90
14144;DHT22;7152;48.348;10.980;2023-02-20T07:41:25;5.80;99.90
14144;DHT22;7152;48.348;10.980;2023-02-20T07:43:54;5.80;99.90
14144;DHT22;7152;48.348;10.980;2023-02-20T07:46:19;5.90;99.90
14144;DHT22;7152;48.348;10.980;2023-02-20T07:48:45;5.90;99.90
14144;DHT22;7152;48.348;10.980;2023-02-20T07:51:11;5.90;99.90
14144;DHT22;7152;48.348;10.980;2023-02-20T07:53:36;6.00;99.90
14144;DHT22;7152;48.348;10.980;2023-02-20T07:56:04;6.00;99.90
14144;DHT22;7152;48.348;10.980;2023-02-20T07:58:29;6.10;99.90
14144;DHT22;7152;48.348;10.980;2023-02-20T08:00:55;6.10;99.90
14144;DHT22;7152;48.348;10.980;2023-02-20T08:03:21;6.20;99.90
14144;DHT22;7152;48.348;10.980;2023-02-20T08:05:46;6.20;99.90
14144;DHT22;7152;48.348;10.980;2023-02-20T08:08:12;6.30;99.90
14144;DHT22;7152;48.348;10.980;2023-02-20T08:10:38;6.40;99.90
14144;DHT22;7152;48.348;10.980;2023-02-20T08:13:03;6.50;99.90
14144;DHT22;7152;48.348;10.980;2023-02-20T08:15:29;6.50;99.90
14144;DHT22;7152;48.348;10.980;2023-02-20T08:17:55;6.60;99.90
14144;DHT22;7152;48.348;10.980;2023-02-20T08:20:21;6.70;99.90
14144;DHT22;7152;48.348;10.980;2023-02-20T08:22:48;6.70;99.90
14144;DHT22;7152;48.348;10.980;2023-02-20T08:25:15;6.80;99.90
14144;DHT22;7152;48.348;10.980;2023-02-20T08:27:47;6.90;99.90
14144;DHT22;7152;48.348;10.980;2023-02-20T08:30:20;6.90;99.90
14144;DHT22;7152;48.348;10.980;2023-02-20T08:32:49;7.00;99.90
14144;DHT22;7152;48.348;10.980;2023-02-20T08:35:14;7.10;99.90
14144;DHT22;7152;48.348;10.980;2023-02-20T08:37:40;7.20;99.90
14144;DHT22;7152;48.348;10.980;2023-02-20T08:40:06;7.30;99.90
14144;DHT22;7152;48.348;10.980;2023-02-20T08:42:33;7.40;99.90
14144;DHT22;7152;48.348;10.980;2023-02-20T08:45:00;7.50;99.90
14144;DHT22;7152;48.348;10.980;2023-02-20T08:47:25;7.60;99.90
14144;DHT22;7152;48.348;10.980;2023-02-20T08:49:51;7.70;99.90
14144;DHT22;7152;48.348;10.980;2023-02-20T08:52:18;7.80;99.90
14144;DHT22;7152;48.348;10.980;2023-02-20T08:54:45;7.90;99.90
14144;DHT22;7152;48.348;10.980;2023-02-20T08:57:12;8.00;99.90
14144;DHT22;7152;48.348;10.980;2023-02-20T08:59:38;8.10;99.90
14144;DHT22;7152;48.348;10.980;2023-02-20T09:02:04;8.30;99.90
14144;DHT22;7152;48.348;10.980;2023-02-20T09:04:30;8.50;99.90
14144;DHT22;7152;48.348;10.980;2023-02-20T09:06:55;8.60;99.90
14144;DHT22;7152;48.348;10.980;2023-02-20T09:09:21;8.80;99.90
14144;DHT22;7152;48.348;10.980;2023-02-20T09:11:47;8.90;99.90
14144;DHT22;7152;48.348;10.980;2023-02-20T09:14:13;9.00;99.90
14144;DHT22;7152;48.348;10.980;2023-02-20T09:16:38;9.00;99.90
14144;DHT22;7152;48.348;10.980;2023-02-20T09:19:07;9.00;99.90
14144;DHT22;7152;48.348;10.980;2023-02-20T09:21:33;9.00;99.90
14144;DHT22;7152;48.348;10.980;2023-02-20T09:23:59;9.00;99.90
14144;DHT22;7152;48.348;10.980;2023-02-20T09:26:24;9.10;99.90
14144;DHT22;7152;48.348;10.980;2023-02-20T09:28:50;9.20;99.90
14144;DHT22;7152;48.348;10.980;2023-02-20T09:31:16;9.30;99.90
14144;DHT22;7152;48.348;10.980;2023-02-20T09:33:45;9.40;99.90
14144;DHT22;7152;48.348;10.980;2023-02-20T09:36:11;9.60;99.90
14144;DHT22;7152;48.348;10.980;2023-02-20T09:38:37;9.80;99.90
14144;DHT22;7152;48.348;10.980;2023-02-20T09:41:03;10.00;99.90
14144;DHT22;7152;48.348;10.980;2023-02-20T09:43:45;10.10;99.90
14144;DHT22;7152;48.348;10.980;2023-02-20T09:46:17;10.30;99.90
14144;DHT22;7152;48.348;10.980;2023-02-20T09:49:10;10.40;99.90
14144;DHT22;7152;48.348;10.980;2023-02-20T09:51:40;10.50;99.90
14144;DHT22;7152;48.348;10.980;2023-02-20T09:54:11;10.60;99.90
14144;DHT22;7152;48.348;10.980;2023-02-20T09:56:44;10.70;99.90
14144;DHT22;7152;48.348;10.980;2023-02-20T10:04:24;10.70;99.90
14144;DHT22;7152;48.348;10.980;2023-02-20T10:06:59;10.60;99.90
14144;DHT22;7152;48.348;10.980;2023-02-20T10:09:26;10.40;99.90
14144;DHT22;7152;48.348;10.980;2023-02-20T10:23:57;9.90;99.90
14144;DHT22;7152;48.348;10.980;2023-02-20T10:26:36;9.90;99.90
14144;DHT22;7152;48.348;10.980;2023-02-20T10:29:16;9.90;99.90
14144;DHT22;7152;48.348;10.980;2023-02-20T10:31:51;10.00;99.90
14144;DHT22;7152;48.348;10.980;2023-02-20T10:37:01;10.20;99.90
14144;DHT22;7152;48.348;10.980;2023-02-20T10:39:28;10.20;99.90
14144;DHT22;7152;48.348;10.980;2023-02-20T10:42:00;10.30;99.90
14144;DHT22;7152;48.348;10.980;2023-02-20T10:47:27;10.50;99.90
14144;DHT22;7152;48.348;10.980;2023-02-20T10:52:47;10.60;99.90
14144;DHT22;7152;48.348;10.980;2023-02-20T10:55:41;10.60;99.90
14144;DHT22;7152;48.348;10.980;2023-02-20T10:58:14;10.70;99.90
14144;DHT22;7152;48.348;10.980;2023-02-20T11:00:49;10.80;99.90
14144;DHT22;7152;48.348;10.980;2023-02-20T11:03:31;10.90;99.90
14144;DHT22;7152;48.348;10.980;2023-02-20T11:06:01;11.00;99.90
14144;DHT22;7152;48.348;10.980;2023-02-20T11:08:28;11.00;99.90
14144;DHT22;7152;48.348;10.980;2023-02-20T11:11:04;11.10;99.90
14144;DHT22;7152;48.348;10.980;2023-02-20T11:13:40;11.20;99.90
14144;DHT22;7152;48.348;10.980;2023-02-20T11:16:35;11.30;99.90
14144;DHT22;7152;48.348;10.980;2023-02-20T11:19:06;11.50;99.90
14144;DHT22;7152;48.348;10.980;2023-02-20T11:21:36;11.50;99.90
14144;DHT22;7152;48.348;10.980;2023-02-20T11:26:49;11.70;99.90
14144;DHT22;7152;48.348;10.980;2023-02-20T11:29:18;11.80;99.90
14144;DHT22;7152;48.348;10.980;2023-02-20T11:31:44;11.90;99.90
14144;DHT22;7152;48.348;10.980;2023-02-20T11:34:20;12.00;99.90
14144;DHT22;7152;48.348;10.980;2023-02-20T11:36:52;12.00;99.90
14144;DHT22;7152;48.348;10.980;2023-02-20T11:39:27;12.10;99.90
14144;DHT22;7152;48.348;10.980;2023-02-20T11:44:36;12.30;99.90
14144;DHT22;7152;48.348;10.980;2023-02-20T11:47:22;12.40;99.90
14144;DHT22;7152;48.348;10.980;2023-02-20T11:49:49;12.50;99.90
14144;DHT22;7152;48.348;10.980;2023-02-20T11:52:20;12.70;99.90
14144;DHT22;7152;48.348;10.980;2023-02-20T11:54:49;12.80;99.90
14144;DHT22;7152;48.348;10.980;2023-02-20T11:57:32;12.90;99.90
14144;DHT22;7152;48.348;10.980;2023-02-20T12:00:20;13.00;99.90
14144;DHT22;7152;48.348;10.980;2023-02-20T12:02:53;13.20;99.90
14144;DHT22;7152;48.348;10.980;2023-02-20T12:05:21;13.40;99.90
14144;DHT22;7152;48.348;10.980;2023-02-20T12:08:00;13.60;99.90
14144;DHT22;7152;48.348;10.980;2023-02-20T12:12:54;14.00;99.90
14144;DHT22;7152;48.348;10.980;2023-02-20T12:15:23;14.20;99.90
14144;DHT22;7152;48.348;10.980;2023-02-20T12:18:16;14.30;99.90
14144;DHT22;7152;48.348;10.980;2023-02-20T12:20:57;14.50;99.90
14144;DHT22;7152;48.348;10.980;2023-02-20T12:23:43;14.60;99.90
14144;DHT22;7152;48.348;10.980;2023-02-20T12:26:13;14.80;99.90
14144;DHT22;7152;48.348;10.980;2023-02-20T12:28:45;15.00;99.90
14144;DHT22;7152;48.348;10.980;2023-02-20T12:36:52;15.20;99.90
14144;DHT22;7152;48.348;10.980;2023-02-20T12:47:44;15.60;99.90
14144;DHT22;7152;48.348;10.980;2023-02-20T12:56:49;15.90;99.90
14144;DHT22;7152;48.348;10.980;2023-02-20T12:59:04;16.10;99.90
14144;DHT22;7152;48.348;10.980;2023-02-20T13:01:33;16.40;99.90
14144;DHT22;7152;48.348;10.980;2023-02-20T13:04:04;16.70;99.90
14144;DHT22;7152;48.348;10.980;2023-02-20T13:06:44;17.20;99.90
14144;DHT22;7152;48.348;10.980;2023-02-20T13:12:15;17.60;99.90
14144;DHT22;7152;48.348;10.980;2023-02-20T13:26:55;17.70;99.90
14144;DHT22;7152;48.348;10.980;2023-02-20T13:29:26;17.40;99.90
14144;DHT22;7152;48.348;10.980;2023-02-20T13:34:43;17.80;99.90
14144;DHT22;7152;48.348;10.980;2023-02-20T13:45:44;19.80;98.10
14144;DHT22;7152;48.348;10.980;2023-02-20T13:53:42;20.60;96.90
14144;DHT22;7152;48.348;10.980;2023-02-20T13:56:22;20.50;96.40
14144;DHT22;7152;48.348;10.980;2023-02-20T14:32:29;17.10;95.30
14144;DHT22;7152;48.348;10.980;2023-02-20T14:40:40;16.20;96.10
14144;DHT22;7152;48.348;10.980;2023-02-20T14:43:26;15.90;96.30
14144;DHT22;7152;48.348;10.980;2023-02-20T14:46:04;15.70;96.20
14144;DHT22;7152;48.348;10.980;2023-02-20T14:48:37;15.60;96.30
14144;DHT22;7152;48.348;10.980;2023-02-20T14:51:21;15.60;96.80
14144;DHT22;7152;48.348;10.980;2023-02-20T14:54:00;15.40;96.70
14144;DHT22;7152;48.348;10.980;2023-02-20T14:56:26;15.30;96.60
14144;DHT22;7152;48.348;10.980;2023-02-20T14:58:52;15.20;96.80
14144;DHT22;7152;48.348;10.980;2023-02-20T15:06:22;14.90;97.30
14144;DHT22;7152;48.348;10.980;2023-02-20T15:08:57;14.80;97.10
14144;DHT22;7152;48.348;10.980;2023-02-20T15:11:24;14.60;97.30
14144;DHT22;7152;48.348;10.980;2023-02-20T15:13:50;14.50;97.40
14144;DHT22;7152;48.348;10.980;2023-02-20T15:16:25;14.40;97.70
14144;DHT22;7152;48.348;10.980;2023-02-20T15:18:52;14.30;98.00
14144;DHT22;7152;48.348;10.980;2023-02-20T15:21:40;14.20;98.30
14144;DHT22;7152;48.348;10.980;2023-02-20T15:26:50;14.10;99.00
14144;DHT22;7152;48.348;10.980;2023-02-20T15:29:24;14.00;99.40
14144;DHT22;7152;48.348;10.980;2023-02-20T15:34:23;13.90;99.70
14144;DHT22;7152;48.348;10.980;2023-02-20T15:36:49;13.90;99.70
14144;DHT22;7152;48.348;10.980;2023-02-20T15:39:16;13.80;99.80
14144;DHT22;7152;48.348;10.980;2023-02-20T15:41:43;13.80;99.60
14144;DHT22;7152;48.348;10.980;2023-02-20T15:44:09;13.70;99.60
14144;DHT22;7152;48.348;10.980;2023-02-20T15:46:35;13.70;99.90
14144;DHT22;7152;48.348;10.980;2023-02-20T15:49:01;13.70;99.80
14144;DHT22;7152;48.348;10.980;2023-02-20T15:51:28;13.70;99.70
14144;DHT22;7152;48.348;10.980;2023-02-20T15:53:56;13.60;99.90
14144;DHT22;7152;48.348;10.980;2023-02-20T15:56:23;13.60;99.90
14144;DHT22;7152;48.348;10.980;2023-02-20T15:58:49;13.60;99.90
14144;DHT22;7152;48.348;10.980;2023-02-20T16:01:15;13.60;99.90
14144;DHT22;7152;48.348;10.980;2023-02-20T16:03:41;13.60;99.90
14144;DHT22;7152;48.348;10.980;2023-02-20T16:06:07;13.70;99.90
14144;DHT22;7152;48.348;10.980;2023-02-20T16:08:33;13.80;99.90
14144;DHT22;7152;48.348;10.980;2023-02-20T16:10:59;13.70;99.90
14144;DHT22;7152;48.348;10.980;2023-02-20T16:13:36;13.60;99.90
14144;DHT22;7152;48.348;10.980;2023-02-20T16:18:37;13.20;99.90
14144;DHT22;7152;48.348;10.980;2023-02-20T16:21:02;13.10;99.90
14144;DHT22;7152;48.348;10.980;2023-02-20T16:23:28;12.90;99.90
14144;DHT22;7152;48.348;10.980;2023-02-20T16:25:55;12.80;99.90
14144;DHT22;7152;48.348;10.980;2023-02-20T16:28:21;12.70;99.90
14144;DHT22;7152;48.348;10.980;2023-02-20T16:30:47;12.50;99.90
14144;DHT22;7152;48.348;10.980;2023-02-20T16:33:18;12.50;99.90
14144;DHT22;7152;48.348;10.980;2023-02-20T16:35:46;12.40;99.90
14144;DHT22;7152;48.348;10.980;2023-02-20T16:38:12;12.40;99.90
14144;DHT22;7152;48.348;10.980;2023-02-20T16:40:38;12.30;99.90
14144;DHT22;7152;48.348;10.980;2023-02-20T16:43:04;12.20;99.90
14144;DHT22;7152;48.348;10.980;2023-02-20T16:45:30;12.20;99.90
14144;DHT22;7152;48.348;10.980;2023-02-20T16:47:57;12.10;99.90
14144;DHT22;7152;48.348;10.980;2023-02-20T16:50:25;12.00;99.90
14144;DHT22;7152;48.348;10.980;2023-02-20T16:52:54;12.00;99.90
14144;DHT22;7152;48.348;10.980;2023-02-20T16:55:25;11.90;99.90
14144;DHT22;7152;48.348;10.980;2023-02-20T16:57:51;11.80;99.90
14144;DHT22;7152;48.348;10.980;2023-02-20T17:00:19;11.70;99.90
14144;DHT22;7152;48.348;10.980;2023-02-20T17:02:45;11.70;99.90
14144;DHT22;7152;48.348;10.980;2023-02-20T17:05:12;11.60;99.90
14144;DHT22;7152;48.348;10.980;2023-02-20T17:07:38;11.50;99.90
14144;DHT22;7152;48.348;10.980;2023-02-20T17:10:07;11.40;99.90
14144;DHT22;7152;48.348;10.980;2023-02-20T17:12:33;11.30;99.90
14144;DHT22;7152;48.348;10.980;2023-02-20T17:15:00;11.20;99.90
14144;DHT22;7152;48.348;10.980;2023-02-20T17:17:26;11.20;99.90
14144;DHT22;7152;48.348;10.980;2023-02-20T17:19:52;11.10;99.90
14144;DHT22;7152;48.348;10.980;2023-02-20T17:22:20;11.10;99.90
14144;DHT22;7152;48.348;10.980;2023-02-20T17:24:46;11.10;99.90
14144;DHT22;7152;48.348;10.980;2023-02-20T17:27:12;11.00;99.90
14144;DHT22;7152;48.348;10.980;2023-02-20T17:29:40;11.00;99.90
14144;DHT22;7152;48.348;10.980;2023-02-20T17:32:06;11.00;99.90
14144;DHT22;7152;48.348;10.980;2023-02-20T17:34:32;11.00;99.90
14144;DHT22;7152;48.348;10.980;2023-02-20T17:36:57;10.90;99.90
14144;DHT22;7152;48.348;10.980;2023-02-20T17:39:23;10.80;99.90
14144;DHT22;7152;48.348;10.980;2023-02-20T17:41:51;10.80;99.90
14144;DHT22;7152;48.348;10.980;2023-02-20T17:44:22;10.70;99.90
14144;DHT22;7152;48.348;10.980;2023-02-20T17:46:50;10.60;99.90
14144;DHT22;7152;48.348;10.980;2023-02-20T17:49:16;10.50;99.90
14144;DHT22;7152;48.348;10.980;2023-02-20T17:51:43;10.50;99.90
14144;DHT22;7152;48.348;10.980;2023-02-20T17:54:09;10.40;99.90
14144;DHT22;7152;48.348;10.980;2023-02-20T17:56:42;10.30;99.90
14144;DHT22;7152;48.348;10.980;2023-02-20T17:59:09;10.20;99.90
14144;DHT22;7152;48.348;10.980;2023-02-20T18:01:35;10.20;99.90
14144;DHT22;7152;48.348;10.980;2023-02-20T18:04:01;10.00;99.90
14144;DHT22;7152;48.348;10.980;2023-02-20T18:06:29;9.90;99.90
14144;DHT22;7152;48.348;10.980;2023-02-20T18:08:55;9.70;99.90
14144;DHT22;7152;48.348;10.980;2023-02-20T18:11:20;9.60;99.90
14144;DHT22;7152;48.348;10.980;2023-02-20T18:13:46;9.40;99.90
14144;DHT22;7152;48.348;10.980;2023-02-20T18:16:12;9.20;99.90
14144;DHT22;7152;48.348;10.980;2023-02-20T18:18:38;9.00;99.90
14144;DHT22;7152;48.348;10.980;2023-02-20T18:21:04;8.90;99.90
14144;DHT22;7152;48.348;10.980;2023-02-20T18:23:30;8.70;99.90
14144;DHT22;7152;48.348;10.980;2023-02-20T18:25:55;8.60;99.90
14144;DHT22;7152;48.348;10.980;2023-02-20T18:28:21;8.50;99.90
14144;DHT22;7152;48.348;10.980;2023-02-20T18:30:47;8.40;99.90
14144;DHT22;7152;48.348;10.980;2023-02-20T18:33:12;8.30;99.90
14144;DHT22;7152;48.348;10.980;2023-02-20T18:35:38;8.20;99.90